sensor_id;sensor_type;location;lat;lon;timestamp;pressure;altitude;pressure_sealevel;temperature;humidity
13420;BME280;6781;58.440;15.470;2023-05-10T00:02:07;101225.75;;;8.54;100.00
13420;BME280;6781;58.440;15.470;2023-05-10T00:04:34;101049.41;;;7.35;100.00
13420;BME280;6781;58.440;15.470;2023-05-10T00:07:01;101126.44;;;7.71;100.00
13420;BME280;6781;58.440;15.470;2023-05-10T00:09:28;101035.81;;;7.17;100.00
13420;BME280;6781;58.440;15.470;2023-05-10T00:11:55;101222.34;;;8.09;100.00
13420;BME280;6781;58.440;15.470;2023-05-10T00:14:26;101144.38;;;7.58;100.00
13420;BME280;6781;58.440;15.470;2023-05-10T00:16:54;100981.03;;;6.53;100.00
13420;BME280;6781;58.440;15.470;2023-05-10T00:19:21;100985.03;;;6.43;100.00
13420;BME280;6781;58.440;15.470;2023-05-10T00:21:48;101003.34;;;6.69;100.00
13420;BME280;6781;58.440;15.470;2023-05-10T00:24:15;101107.50;;;7.26;100.00
13420;BME280;6781;58.440;15.470;2023-05-10T00:26:42;101215.50;;;8.08;100.00
13420;BME280;6781;58.440;15.470;2023-05-10T00:29:09;101054.06;;;6.98;100.00
13420;BME280;6781;58.440;15.470;2023-05-10T00:31:38;101149.59;;;7.42;100.00
13420;BME280;6781;58.440;15.470;2023-05-10T00:34:05;100988.41;;;6.60;100.00
13420;BME280;6781;58.440;15.470;2023-05-10T00:36:32;101165.38;;;7.52;100.00
13420;BME280;6781;58.440;15.470;2023-05-10T00:38:59;101213.59;;;7.81;100.00
13420;BME280;6781;58.440;15.470;2023-05-10T00:41:26;101219.06;;;7.91;100.00
13420;BME280;6781;58.440;15.470;2023-05-10T00:43:53;101070.28;;;7.00;100.00
13420;BME280;6781;58.440;15.470;2023-05-10T00:46:20;101059.38;;;6.81;100.00
13420;BME280;6781;58.440;15.470;2023-05-10T00:48:49;101209.47;;;7.63;100.00
13420;BME280;6781;58.440;15.470;2023-05-10T00:51:16;101020.59;;;6.52;100.00
13420;BME280;6781;58.440;15.470;2023-05-10T00:53:44;101027.50;;;6.36;100.00
13420;BME280;6781;58.440;15.470;2023-05-10T00:56:12;101124.69;;;7.11;100.00
13420;BME280;6781;58.440;15.470;2023-05-10T00:58:39;101085.16;;;6.81;100.00
13420;BME280;6781;58.440;15.470;2023-05-10T01:01:08;101192.03;;;7.53;100.00
13420;BME280;6781;58.440;15.470;2023-05-10T01:03:36;101216.47;;;7.61;100.00
13420;BME280;6781;58.440;15.470;2023-05-10T01:06:05;101034.97;;;6.25;100.00
13420;BME280;6781;58.440;15.470;2023-05-10T01:08:32;101210.91;;;7.53;100.00
13420;BME280;6781;58.440;15.470;2023-05-10T01:11:00;101117.53;;;7.01;100.00
13420;BME280;6781;58.440;15.470;2023-05-10T01:13:31;101165.13;;;7.11;100.00
13420;BME280;6781;58.440;15.470;2023-05-10T01:16:03;101208.63;;;7.33;100.00
13420;BME280;6781;58.440;15.470;2023-05-10T01:18:30;101217.53;;;7.27;100.00
13420;BME280;6781;58.440;15.470;2023-05-10T01:21:27;101032.06;;;6.31;100.00
13420;BME280;6781;58.440;15.470;2023-05-10T01:24:31;101199.22;;;7.32;100.00
13420;BME280;6781;58.440;15.470;2023-05-10T01:27:25;101117.50;;;6.55;100.00
13420;BME280;6781;58.440;15.470;2023-05-10T01:30:32;101194.31;;;7.11;100.00
13420;BME280;6781;58.440;15.470;2023-05-10T01:33:08;101207.88;;;6.99;100.00
13420;BME280;6781;58.440;15.470;2023-05-10T01:35:41;101211.78;;;7.06;100.00
13420;BME280;6781;58.440;15.470;2023-05-10T01:38:15;101202.88;;;6.96;100.00
13420;BME280;6781;58.440;15.470;2023-05-10T01:40:50;101211.91;;;6.89;100.00
13420;BME280;6781;58.440;15.470;2023-05-10T01:43:21;101196.59;;;6.86;100.00
13420;BME280;6781;58.440;15.470;2023-05-10T01:45:59;101214.84;;;6.97;100.00
13420;BME280;6781;58.440;15.470;2023-05-10T01:48:32;101201.56;;;6.89;100.00
13420;BME280;6781;58.440;15.470;2023-05-10T01:51:00;101021.13;;;5.62;100.00
13420;BME280;6781;58.440;15.470;2023-05-10T01:53:28;101138.16;;;6.38;100.00
13420;BME280;6781;58.440;15.470;2023-05-10T01:55:56;101162.19;;;6.38;100.00
13420;BME280;6781;58.440;15.470;2023-05-10T01:58:28;101005.56;;;5.47;100.00
13420;BME280;6781;58.440;15.470;2023-05-10T02:00:58;101057.44;;;5.55;100.00
13420;BME280;6781;58.440;15.470;2023-05-10T02:03:27;101037.09;;;5.51;100.00
13420;BME280;6781;58.440;15.470;2023-05-10T02:08:33;101213.97;;;6.49;100.00
13420;BME280;6781;58.440;15.470;2023-05-10T02:11:03;100958.06;;;5.04;100.00
13420;BME280;6781;58.440;15.470;2023-05-10T02:13:35;101156.94;;;6.40;100.00
13420;BME280;6781;58.440;15.470;2023-05-10T02:16:05;101144.88;;;6.25;100.00
13420;BME280;6781;58.440;15.470;2023-05-10T02:18:33;101205.03;;;6.57;100.00
13420;BME280;6781;58.440;15.470;2023-05-10T02:21:02;101077.34;;;5.69;100.00
13420;BME280;6781;58.440;15.470;2023-05-10T02:23:34;101065.09;;;5.57;100.00
13420;BME280;6781;58.440;15.470;2023-05-10T02:26:02;100933.75;;;4.60;100.00
13420;BME280;6781;58.440;15.470;2023-05-10T02:28:32;101223.25;;;6.36;100.00
13420;BME280;6781;58.440;15.470;2023-05-10T02:31:00;101089.06;;;5.57;100.00
13420;BME280;6781;58.440;15.470;2023-05-10T02:33:28;101079.47;;;5.61;100.00
13420;BME280;6781;58.440;15.470;2023-05-10T02:35:56;101075.09;;;5.46;100.00
13420;BME280;6781;58.440;15.470;2023-05-10T02:38:24;101200.53;;;6.27;100.00
13420;BME280;6781;58.440;15.470;2023-05-10T02:40:54;100936.75;;;4.68;100.00
13420;BME280;6781;58.440;15.470;2023-05-10T02:43:22;101020.66;;;5.03;100.00
13420;BME280;6781;58.440;15.470;2023-05-10T02:45:50;101235.69;;;6.28;100.00
13420;BME280;6781;58.440;15.470;2023-05-10T02:48:17;101208.59;;;6.21;100.00
13420;BME280;6781;58.440;15.470;2023-05-10T02:50:50;101219.19;;;6.32;100.00
13420;BME280;6781;58.440;15.470;2023-05-10T02:53:22;100960.31;;;4.58;100.00
13420;BME280;6781;58.440;15.470;2023-05-10T02:55:53;101229.66;;;6.12;100.00
13420;BME280;6781;58.440;15.470;2023-05-10T02:58:28;100887.19;;;4.31;100.00
13420;BME280;6781;58.440;15.470;2023-05-10T03:00:55;101235.16;;;6.39;100.00
13420;BME280;6781;58.440;15.470;2023-05-10T03:03:23;100959.59;;;4.74;100.00
13420;BME280;6781;58.440;15.470;2023-05-10T03:05:51;101096.94;;;5.72;100.00
13420;BME280;6781;58.440;15.470;2023-05-10T03:08:21;101220.06;;;6.48;100.00
13420;BME280;6781;58.440;15.470;2023-05-10T03:10:59;101219.31;;;6.46;100.00
13420;BME280;6781;58.440;15.470;2023-05-10T03:13:38;101106.59;;;5.84;100.00
13420;BME280;6781;58.440;15.470;2023-05-10T03:16:14;100983.78;;;5.04;100.00
13420;BME280;6781;58.440;15.470;2023-05-10T03:18:44;101196.81;;;6.33;100.00
13420;BME280;6781;58.440;15.470;2023-05-10T03:21:17;101242.59;;;6.61;100.00
13420;BME280;6781;58.440;15.470;2023-05-10T03:23:51;101057.22;;;5.60;100.00
13420;BME280;6781;58.440;15.470;2023-05-10T03:26:24;101216.69;;;6.64;100.00
13420;BME280;6781;58.440;15.470;2023-05-10T03:28:53;101054.72;;;5.59;100.00
13420;BME280;6781;58.440;15.470;2023-05-10T03:31:29;101215.19;;;6.60;100.00
13420;BME280;6781;58.440;15.470;2023-05-10T03:33:56;101235.16;;;6.72;100.00
13420;BME280;6781;58.440;15.470;2023-05-10T03:36:23;101220.16;;;6.63;100.00
13420;BME280;6781;58.440;15.470;2023-05-10T03:38:50;100955.88;;;4.97;100.00
13420;BME280;6781;58.440;15.470;2023-05-10T03:41:25;101186.03;;;6.42;100.00
13420;BME280;6781;58.440;15.470;2023-05-10T03:43:52;101132.59;;;5.97;100.00
13420;BME280;6781;58.440;15.470;2023-05-10T03:46:19;101129.19;;;5.96;100.00
13420;BME280;6781;58.440;15.470;2023-05-10T03:48:55;101109.56;;;5.76;100.00
13420;BME280;6781;58.440;15.470;2023-05-10T03:51:22;101181.63;;;6.11;100.00
13420;BME280;6781;58.440;15.470;2023-05-10T03:53:50;101211.75;;;6.26;100.00
13420;BME280;6781;58.440;15.470;2023-05-10T03:56:18;101170.59;;;5.92;100.00
13420;BME280;6781;58.440;15.470;2023-05-10T03:58:47;101129.41;;;5.92;100.00
13420;BME280;6781;58.440;15.470;2023-05-10T04:01:15;101263.38;;;6.58;100.00
13420;BME280;6781;58.440;15.470;2023-05-10T04:03:42;101138.25;;;6.03;100.00
13420;BME280;6781;58.440;15.470;2023-05-10T04:06:09;101178.50;;;6.22;100.00
13420;BME280;6781;58.440;15.470;2023-05-10T04:08:37;101233.94;;;6.46;100.00
13420;BME280;6781;58.440;15.470;2023-05-10T04:11:05;101114.56;;;5.79;100.00
13420;BME280;6781;58.440;15.470;2023-05-10T04:13:33;101070.84;;;5.62;100.00
13420;BME280;6781;58.440;15.470;2023-05-10T04:16:05;101191.00;;;6.29;100.00
13420;BME280;6781;58.440;15.470;2023-05-10T04:18:32;100979.53;;;5.03;100.00
13420;BME280;6781;58.440;15.470;2023-05-10T04:21:00;100948.84;;;5.00;100.00
13420;BME280;6781;58.440;15.470;2023-05-10T04:23:28;100987.03;;;5.08;100.00
13420;BME280;6781;58.440;15.470;2023-05-10T04:26:01;101030.91;;;5.38;100.00
13420;BME280;6781;58.440;15.470;2023-05-10T04:28:28;101072.34;;;5.66;100.00
13420;BME280;6781;58.440;15.470;2023-05-10T04:31:01;101226.19;;;6.79;100.00
13420;BME280;6781;58.440;15.470;2023-05-10T04:33:33;100981.13;;;5.06;100.00
13420;BME280;6781;58.440;15.470;2023-05-10T04:36:01;100992.81;;;5.29;100.00
13420;BME280;6781;58.440;15.470;2023-05-10T04:38:30;101036.56;;;5.44;100.00
13420;BME280;6781;58.440;15.470;2023-05-10T04:41:04;101093.66;;;5.85;100.00
13420;BME280;6781;58.440;15.470;2023-05-10T04:43:31;101186.25;;;6.55;100.00
13420;BME280;6781;58.440;15.470;2023-05-10T04:45:59;101236.06;;;7.02;100.00
13420;BME280;6781;58.440;15.470;2023-05-10T04:48:26;101269.09;;;6.96;100.00
13420;BME280;6781;58.440;15.470;2023-05-10T04:50:57;101089.34;;;5.86;100.00
13420;BME280;6781;58.440;15.470;2023-05-10T04:53:29;101108.75;;;6.26;100.00
13420;BME280;6781;58.440;15.470;2023-05-10T04:55:56;101130.53;;;6.52;100.00
13420;BME280;6781;58.440;15.470;2023-05-10T04:58:23;101276.09;;;7.25;100.00
13420;BME280;6781;58.440;15.470;2023-05-10T05:00:51;101222.59;;;6.97;100.00
13420;BME280;6781;58.440;15.470;2023-05-10T05:03:18;101130.31;;;6.57;100.00
13420;BME280;6781;58.440;15.470;2023-05-10T05:05:46;101211.13;;;7.18;100.00
13420;BME280;6781;58.440;15.470;2023-05-10T05:08:14;101114.09;;;6.86;100.00
13420;BME280;6781;58.440;15.470;2023-05-10T05:10:41;101187.22;;;7.31;100.00
13420;BME280;6781;58.440;15.470;2023-05-10T05:13:12;101160.44;;;7.17;100.00
13420;BME280;6781;58.440;15.470;2023-05-10T05:15:56;101278.72;;;7.87;100.00
13420;BME280;6781;58.440;15.470;2023-05-10T05:18:23;101115.00;;;7.31;100.00
13420;BME280;6781;58.440;15.470;2023-05-10T05:20:52;101192.63;;;7.72;100.00
13420;BME280;6781;58.440;15.470;2023-05-10T05:23:22;101198.50;;;7.90;100.00
13420;BME280;6781;58.440;15.470;2023-05-10T05:25:53;101276.50;;;8.40;100.00
13420;BME280;6781;58.440;15.470;2023-05-10T05:28:20;101121.34;;;7.69;100.00
13420;BME280;6781;58.440;15.470;2023-05-10T05:30:51;101302.91;;;8.74;100.00
13420;BME280;6781;58.440;15.470;2023-05-10T05:33:18;101162.50;;;8.45;100.00
13420;BME280;6781;58.440;15.470;2023-05-10T05:35:45;101263.91;;;9.05;100.00
13420;BME280;6781;58.440;15.470;2023-05-10T05:38:16;101010.63;;;7.65;100.00
13420;BME280;6781;58.440;15.470;2023-05-10T05:40:45;101155.28;;;8.91;100.00
13420;BME280;6781;58.440;15.470;2023-05-10T05:43:12;101117.59;;;8.87;100.00
13420;BME280;6781;58.440;15.470;2023-05-10T05:45:40;101205.06;;;9.75;100.00
13420;BME280;6781;58.440;15.470;2023-05-10T05:48:07;101259.44;;;10.02;100.00
13420;BME280;6781;58.440;15.470;2023-05-10T05:50:34;101250.53;;;10.19;100.00
13420;BME280;6781;58.440;15.470;2023-05-10T05:53:01;101234.78;;;10.48;100.00
13420;BME280;6781;58.440;15.470;2023-05-10T05:55:28;101062.09;;;9.58;100.00
13420;BME280;6781;58.440;15.470;2023-05-10T05:57:58;100948.38;;;9.17;100.00
13420;BME280;6781;58.440;15.470;2023-05-10T06:00:25;101098.38;;;10.21;100.00
13420;BME280;6781;58.440;15.470;2023-05-10T06:02:53;101105.13;;;10.48;100.00
13420;BME280;6781;58.440;15.470;2023-05-10T06:05:20;100971.22;;;9.73;100.00
13420;BME280;6781;58.440;15.470;2023-05-10T06:07:50;100943.16;;;9.80;100.00
13420;BME280;6781;58.440;15.470;2023-05-10T06:10:25;100947.66;;;10.02;100.00
13420;BME280;6781;58.440;15.470;2023-05-10T06:12:52;100954.13;;;10.20;100.00
13420;BME280;6781;58.440;15.470;2023-05-10T06:15:21;101081.16;;;11.04;100.00
13420;BME280;6781;58.440;15.470;2023-05-10T06:17:48;101217.06;;;11.75;100.00
13420;BME280;6781;58.440;15.470;2023-05-10T06:20:16;101062.03;;;11.05;100.00
13420;BME280;6781;58.440;15.470;2023-05-10T06:22:43;101030.41;;;11.00;100.00
13420;BME280;6781;58.440;15.470;2023-05-10T06:25:10;101117.69;;;11.60;100.00
13420;BME280;6781;58.440;15.470;2023-05-10T06:27:38;100940.38;;;10.55;100.00
13420;BME280;6781;58.440;15.470;2023-05-10T06:30:06;101081.06;;;11.63;100.00
13420;BME280;6781;58.440;15.470;2023-05-10T06:32:35;101190.13;;;12.33;100.00
13420;BME280;6781;58.440;15.470;2023-05-10T06:35:03;101005.47;;;11.44;100.00
13420;BME280;6781;58.440;15.470;2023-05-10T06:37:30;101088.94;;;11.86;100.00
13420;BME280;6781;58.440;15.470;2023-05-10T06:39:57;101169.53;;;12.53;100.00
13420;BME280;6781;58.440;15.470;2023-05-10T06:42:24;101051.00;;;12.05;100.00
13420;BME280;6781;58.440;15.470;2023-05-10T06:44:52;101174.13;;;12.83;100.00
13420;BME280;6781;58.440;15.470;2023-05-10T06:47:19;101034.59;;;12.05;97.90
13420;BME280;6781;58.440;15.470;2023-05-10T06:49:49;101176.31;;;13.21;96.40
13420;BME280;6781;58.440;15.470;2023-05-10T06:52:16;101170.63;;;13.04;96.34
13420;BME280;6781;58.440;15.470;2023-05-10T06:54:43;101166.34;;;13.15;96.80
13420;BME280;6781;58.440;15.470;2023-05-10T06:57:10;100902.97;;;11.70;96.67
13420;BME280;6781;58.440;15.470;2023-05-10T06:59:46;100961.03;;;12.14;92.67
13420;BME280;6781;58.440;15.470;2023-05-10T07:02:14;100943.28;;;12.19;90.60
13420;BME280;6781;58.440;15.470;2023-05-10T07:04:41;101143.91;;;13.97;89.55
13420;BME280;6781;58.440;15.470;2023-05-10T07:07:16;100990.16;;;13.25;88.50
13420;BME280;6781;58.440;15.470;2023-05-10T07:09:43;101044.09;;;13.95;85.50
13420;BME280;6781;58.440;15.470;2023-05-10T07:12:10;101082.34;;;14.55;87.97
13420;BME280;6781;58.440;15.470;2023-05-10T07:14:40;100979.63;;;14.16;82.60
13420;BME280;6781;58.440;15.470;2023-05-10T07:17:07;100952.06;;;14.23;79.55
13420;BME280;6781;58.440;15.470;2023-05-10T07:19:34;100964.47;;;14.50;76.44
13420;BME280;6781;58.440;15.470;2023-05-10T07:22:02;100970.09;;;14.65;76.16
13420;BME280;6781;58.440;15.470;2023-05-10T07:24:31;100989.19;;;14.75;76.60
13420;BME280;6781;58.440;15.470;2023-05-10T07:26:58;101113.91;;;15.87;77.09
13420;BME280;6781;58.440;15.470;2023-05-10T07:29:26;100960.94;;;15.27;72.02
13420;BME280;6781;58.440;15.470;2023-05-10T07:31:53;101024.19;;;16.05;70.78
13420;BME280;6781;58.440;15.470;2023-05-10T07:34:20;100864.88;;;15.02;67.89
13420;BME280;6781;58.440;15.470;2023-05-10T07:36:51;101109.00;;;16.94;68.43
13420;BME280;6781;58.440;15.470;2023-05-10T07:39:18;100955.44;;;16.12;66.63
13420;BME280;6781;58.440;15.470;2023-05-10T07:41:47;100973.16;;;16.18;65.44
13420;BME280;6781;58.440;15.470;2023-05-10T07:44:14;101060.25;;;16.66;62.42
13420;BME280;6781;58.440;15.470;2023-05-10T07:46:44;101082.38;;;17.50;63.31
13420;BME280;6781;58.440;15.470;2023-05-10T07:49:11;101110.94;;;17.53;60.97
13420;BME280;6781;58.440;15.470;2023-05-10T07:51:39;101088.69;;;17.83;61.03
13420;BME280;6781;58.440;15.470;2023-05-10T07:54:06;100941.66;;;17.33;60.38
13420;BME280;6781;58.440;15.470;2023-05-10T07:56:34;101090.97;;;18.12;58.59
13420;BME280;6781;58.440;15.470;2023-05-10T07:59:03;101014.78;;;18.04;58.33
13420;BME280;6781;58.440;15.470;2023-05-10T08:01:33;101074.00;;;18.49;55.05
13420;BME280;6781;58.440;15.470;2023-05-10T08:04:00;100966.38;;;18.07;55.48
13420;BME280;6781;58.440;15.470;2023-05-10T08:06:28;100865.38;;;17.61;55.10
13420;BME280;6781;58.440;15.470;2023-05-10T08:08:55;100927.88;;;18.32;54.75
13420;BME280;6781;58.440;15.470;2023-05-10T08:11:22;101059.31;;;18.97;52.39
13420;BME280;6781;58.440;15.470;2023-05-10T08:13:50;101041.53;;;19.07;51.32
13420;BME280;6781;58.440;15.470;2023-05-10T08:16:19;100946.59;;;18.37;51.77
13420;BME280;6781;58.440;15.470;2023-05-10T08:18:46;101060.59;;;19.33;50.41
13420;BME280;6781;58.440;15.470;2023-05-10T08:21:14;101037.59;;;19.27;48.29
13420;BME280;6781;58.440;15.470;2023-05-10T08:23:42;100919.03;;;18.65;48.13
13420;BME280;6781;58.440;15.470;2023-05-10T08:26:09;100969.94;;;18.97;48.12
13420;BME280;6781;58.440;15.470;2023-05-10T08:28:39;100869.44;;;18.46;48.13
13420;BME280;6781;58.440;15.470;2023-05-10T08:31:06;100840.16;;;18.81;47.10
13420;BME280;6781;58.440;15.470;2023-05-10T08:33:35;100839.53;;;18.63;47.35
13420;BME280;6781;58.440;15.470;2023-05-10T08:36:05;100863.00;;;18.81;46.48
13420;BME280;6781;58.440;15.470;2023-05-10T08:38:32;100981.16;;;19.54;46.80
13420;BME280;6781;58.440;15.470;2023-05-10T08:41:02;100960.88;;;19.63;46.51
13420;BME280;6781;58.440;15.470;2023-05-10T08:43:29;100940.75;;;19.23;46.50
13420;BME280;6781;58.440;15.470;2023-05-10T08:46:00;100954.25;;;19.75;46.49
13420;BME280;6781;58.440;15.470;2023-05-10T08:48:29;100866.25;;;19.30;45.53
13420;BME280;6781;58.440;15.470;2023-05-10T08:51:00;100888.41;;;19.52;44.72
13420;BME280;6781;58.440;15.470;2023-05-10T08:53:29;100895.69;;;19.73;43.75
13420;BME280;6781;58.440;15.470;2023-05-10T08:55:58;100819.31;;;19.50;43.57
13420;BME280;6781;58.440;15.470;2023-05-10T08:58:25;100999.91;;;20.75;44.29
13420;BME280;6781;58.440;15.470;2023-05-10T09:00:53;100942.81;;;20.67;43.85
13420;BME280;6781;58.440;15.470;2023-05-10T09:03:20;100884.31;;;20.49;41.58
13420;BME280;6781;58.440;15.470;2023-05-10T09:05:47;101029.38;;;21.16;41.42
13420;BME280;6781;58.440;15.470;2023-05-10T09:08:19;101040.88;;;21.00;40.83
13420;BME280;6781;58.440;15.470;2023-05-10T09:10:48;100895.88;;;20.63;42.71
13420;BME280;6781;58.440;15.470;2023-05-10T09:13:15;101046.66;;;21.86;42.47
13420;BME280;6781;58.440;15.470;2023-05-10T09:15:44;100852.53;;;20.65;42.26
13420;BME280;6781;58.440;15.470;2023-05-10T09:18:11;100924.63;;;20.87;40.87
13420;BME280;6781;58.440;15.470;2023-05-10T09:20:39;101017.41;;;21.87;40.53
13420;BME280;6781;58.440;15.470;2023-05-10T09:23:06;100824.50;;;20.94;40.54
13420;BME280;6781;58.440;15.470;2023-05-10T09:25:36;100859.88;;;21.14;40.18
13420;BME280;6781;58.440;15.470;2023-05-10T09:28:06;101017.91;;;22.91;40.12
13420;BME280;6781;58.440;15.470;2023-05-10T09:30:34;100781.63;;;20.56;39.23
13420;BME280;6781;58.440;15.470;2023-05-10T09:33:02;100892.63;;;21.85;39.62
13420;BME280;6781;58.440;15.470;2023-05-10T09:35:30;100960.88;;;22.18;39.96
13420;BME280;6781;58.440;15.470;2023-05-10T09:37:59;100816.50;;;21.53;41.26
13420;BME280;6781;58.440;15.470;2023-05-10T09:40:31;100909.66;;;22.19;39.07
13420;BME280;6781;58.440;15.470;2023-05-10T09:43:25;100793.13;;;20.99;38.00
13420;BME280;6781;58.440;15.470;2023-05-10T09:45:54;100931.81;;;22.39;38.94
13420;BME280;6781;58.440;15.470;2023-05-10T09:48:24;101020.03;;;22.59;39.55
13420;BME280;6781;58.440;15.470;2023-05-10T09:50:56;101012.13;;;22.81;38.93
13420;BME280;6781;58.440;15.470;2023-05-10T09:53:29;100915.56;;;22.21;37.36
13420;BME280;6781;58.440;15.470;2023-05-10T09:55:56;100829.09;;;21.72;38.20
13420;BME280;6781;58.440;15.470;2023-05-10T09:58:25;101026.88;;;23.18;38.25
13420;BME280;6781;58.440;15.470;2023-05-10T10:00:52;101010.00;;;23.53;38.16
13420;BME280;6781;58.440;15.470;2023-05-10T10:03:20;100811.53;;;22.91;38.69
13420;BME280;6781;58.440;15.470;2023-05-10T10:05:54;100865.22;;;22.85;38.59
13420;BME280;6781;58.440;15.470;2023-05-10T10:08:22;100986.72;;;23.83;37.59
13420;BME280;6781;58.440;15.470;2023-05-10T10:10:49;101001.25;;;24.00;38.43
13420;BME280;6781;58.440;15.470;2023-05-10T10:13:17;100869.38;;;23.42;37.68
13420;BME280;6781;58.440;15.470;2023-05-10T10:15:45;100984.09;;;23.90;36.81
13420;BME280;6781;58.440;15.470;2023-05-10T10:18:16;101004.63;;;24.36;36.93
13420;BME280;6781;58.440;15.470;2023-05-10T10:20:45;100839.50;;;23.54;37.18
13420;BME280;6781;58.440;15.470;2023-05-10T10:23:15;100891.97;;;23.98;36.88
13420;BME280;6781;58.440;15.470;2023-05-10T10:25:42;100875.41;;;23.77;38.76
13420;BME280;6781;58.440;15.470;2023-05-10T10:28:18;100773.78;;;22.76;35.53
13420;BME280;6781;58.440;15.470;2023-05-10T10:30:52;100821.59;;;23.63;37.31
13420;BME280;6781;58.440;15.470;2023-05-10T10:33:33;100778.41;;;23.69;37.36
13420;BME280;6781;58.440;15.470;2023-05-10T10:36:04;100816.69;;;23.05;35.60
13420;BME280;6781;58.440;15.470;2023-05-10T10:41:28;100958.47;;;24.04;36.71
13420;BME280;6781;58.440;15.470;2023-05-10T10:44:26;100852.25;;;23.37;36.70
13420;BME280;6781;58.440;15.470;2023-05-10T10:47:03;100931.69;;;23.85;36.24
13420;BME280;6781;58.440;15.470;2023-05-10T10:49:31;100762.44;;;22.82;37.26
13420;BME280;6781;58.440;15.470;2023-05-10T10:52:20;100957.47;;;24.18;35.54
13420;BME280;6781;58.440;15.470;2023-05-10T10:54:53;100828.03;;;23.47;36.99
13420;BME280;6781;58.440;15.470;2023-05-10T10:57:25;100798.03;;;22.17;38.26
13420;BME280;6781;58.440;15.470;2023-05-10T11:00:26;100950.31;;;22.18;37.20
13420;BME280;6781;58.440;15.470;2023-05-10T11:02:57;100936.75;;;21.70;38.12
13420;BME280;6781;58.440;15.470;2023-05-10T11:05:39;100944.09;;;22.25;39.34
13420;BME280;6781;58.440;15.470;2023-05-10T11:08:09;100945.97;;;21.95;40.35
13420;BME280;6781;58.440;15.470;2023-05-10T11:10:37;100975.47;;;22.14;39.53
13420;BME280;6781;58.440;15.470;2023-05-10T11:13:05;100895.81;;;21.44;39.06
13420;BME280;6781;58.440;15.470;2023-05-10T11:15:34;100832.31;;;21.31;40.74
13420;BME280;6781;58.440;15.470;2023-05-10T11:20:59;100940.69;;;21.44;41.70
13420;BME280;6781;58.440;15.470;2023-05-10T11:23:32;100998.22;;;21.64;41.88
13420;BME280;6781;58.440;15.470;2023-05-10T11:26:00;100870.69;;;20.60;40.26
13420;BME280;6781;58.440;15.470;2023-05-10T11:28:32;100986.94;;;20.51;40.01
13420;BME280;6781;58.440;15.470;2023-05-10T11:30:59;100878.34;;;20.32;42.78
13420;BME280;6781;58.440;15.470;2023-05-10T11:33:26;100870.78;;;20.06;41.25
13420;BME280;6781;58.440;15.470;2023-05-10T11:36:13;100874.94;;;20.24;42.55
13420;BME280;6781;58.440;15.470;2023-05-10T11:38:43;100897.88;;;20.38;42.86
13420;BME280;6781;58.440;15.470;2023-05-10T11:41:10;100754.13;;;19.83;42.19
13420;BME280;6781;58.440;15.470;2023-05-10T11:43:40;100874.19;;;20.75;42.35
13420;BME280;6781;58.440;15.470;2023-05-10T11:46:11;100924.94;;;21.36;41.41
13420;BME280;6781;58.440;15.470;2023-05-10T11:48:42;100961.69;;;21.82;40.57
13420;BME280;6781;58.440;15.470;2023-05-10T11:51:13;100857.88;;;21.01;39.20
13420;BME280;6781;58.440;15.470;2023-05-10T11:53:42;100721.41;;;20.30;40.20
13420;BME280;6781;58.440;15.470;2023-05-10T11:56:10;100762.81;;;21.24;39.93
13420;BME280;6781;58.440;15.470;2023-05-10T11:58:38;100739.78;;;21.18;40.88
13420;BME280;6781;58.440;15.470;2023-05-10T12:01:07;100937.69;;;22.62;39.96
13420;BME280;6781;58.440;15.470;2023-05-10T12:03:36;100816.91;;;22.14;40.03
13420;BME280;6781;58.440;15.470;2023-05-10T12:06:04;100942.97;;;23.18;38.92
13420;BME280;6781;58.440;15.470;2023-05-10T12:08:33;100835.09;;;22.51;40.09
13420;BME280;6781;58.440;15.470;2023-05-10T12:11:07;100804.22;;;22.93;38.00
13420;BME280;6781;58.440;15.470;2023-05-10T12:13:38;100734.78;;;21.87;37.97
13420;BME280;6781;58.440;15.470;2023-05-10T12:16:13;100942.97;;;22.62;37.99
13420;BME280;6781;58.440;15.470;2023-05-10T12:18:40;100945.69;;;23.66;39.50
13420;BME280;6781;58.440;15.470;2023-05-10T12:21:09;100916.63;;;23.45;37.66
13420;BME280;6781;58.440;15.470;2023-05-10T12:23:39;100813.41;;;23.03;38.23
13420;BME280;6781;58.440;15.470;2023-05-10T12:26:08;100811.69;;;22.83;38.78
13420;BME280;6781;58.440;15.470;2023-05-10T12:28:39;100787.97;;;22.68;36.67
13420;BME280;6781;58.440;15.470;2023-05-10T12:31:07;100787.56;;;22.64;37.32
13420;BME280;6781;58.440;15.470;2023-05-10T12:33:37;100883.34;;;23.70;38.15
13420;BME280;6781;58.440;15.470;2023-05-10T12:36:28;100683.00;;;22.68;37.17
13420;BME280;6781;58.440;15.470;2023-05-10T12:39:15;100924.16;;;23.82;36.26
13420;BME280;6781;58.440;15.470;2023-05-10T12:41:43;100750.59;;;23.38;37.04
13420;BME280;6781;58.440;15.470;2023-05-10T12:44:10;100719.16;;;21.92;37.91
13420;BME280;6781;58.440;15.470;2023-05-10T12:46:37;100846.22;;;23.09;37.44
13420;BME280;6781;58.440;15.470;2023-05-10T12:49:04;100878.41;;;23.54;37.20
13420;BME280;6781;58.440;15.470;2023-05-10T12:51:31;100861.94;;;23.17;37.17
13420;BME280;6781;58.440;15.470;2023-05-10T12:53:58;100924.53;;;23.31;37.21
13420;BME280;6781;58.440;15.470;2023-05-10T12:56:27;100901.75;;;23.98;37.92
13420;BME280;6781;58.440;15.470;2023-05-10T12:58:54;100928.31;;;24.71;37.41
13420;BME280;6781;58.440;15.470;2023-05-10T13:01:23;100834.88;;;24.36;35.69
13420;BME280;6781;58.440;15.470;2023-05-10T13:03:50;100908.31;;;24.22;35.05
13420;BME280;6781;58.440;15.470;2023-05-10T13:06:17;100894.03;;;24.16;35.98
13420;BME280;6781;58.440;15.470;2023-05-10T13:08:44;100832.84;;;24.05;36.44
13420;BME280;6781;58.440;15.470;2023-05-10T13:11:11;100938.94;;;24.64;36.94
13420;BME280;6781;58.440;15.470;2023-05-10T13:13:45;100838.53;;;23.88;36.31